Terminal Aerodrome Forecast
Issued by NWS Sterling, VA

Home | Current Version | Previous Version | Text Only | Print | Product List | Glossary On
Versions: 1 2 3 4 5 6 7 8 9 10 11 12 13 14 15 16 17 18 19 20 21 22 23 24 25 26 27 28 29 30 31 32
000
FTUS41 KLWX 031434 AAA
TAFBWI
TAF AMD
KBWI 031434Z 0315/0418 11004KT P6SM SCT050 BKN200
     FM040400 12005KT P6SM -SHRA OVC050
     FM040700 10005KT 5SM -SHRA BR OVC045
     FM041100 10006KT 4SM -SHRA BR OVC008
     FM041500 10005KT P6SM -SHRA OVC015 WS020/05025KT=

USA.gov is the U.S. government's official web portal to all federal, state and local government web resources and services.